sensor_id;sensor_type;location;lat;lon;timestamp;temperature;humidity
7325;DHT22;3703;48.016;7.802;2022-07-10T00:01:38;21.00;1.00
7325;DHT22;3703;48.016;7.802;2022-07-10T00:04:26;21.10;1.00
7325;DHT22;3703;48.016;7.802;2022-07-10T00:07:15;20.90;1.00
7325;DHT22;3703;48.016;7.802;2022-07-10T00:10:04;20.90;1.00
7325;DHT22;3703;48.016;7.802;2022-07-10T00:12:52;20.80;1.00
7325;DHT22;3703;48.016;7.802;2022-07-10T00:15:40;20.60;1.00
7325;DHT22;3703;48.016;7.802;2022-07-10T00:18:28;20.70;1.00
7325;DHT22;3703;48.016;7.802;2022-07-10T00:21:16;20.80;1.00
7325;DHT22;3703;48.016;7.802;2022-07-10T00:24:05;20.70;1.00
7325;DHT22;3703;48.016;7.802;2022-07-10T00:26:53;20.70;1.00
7325;DHT22;3703;48.016;7.802;2022-07-10T00:29:41;20.90;1.00
7325;DHT22;3703;48.016;7.802;2022-07-10T00:32:29;20.90;1.00
7325;DHT22;3703;48.016;7.802;2022-07-10T00:35:17;21.00;1.00
7325;DHT22;3703;48.016;7.802;2022-07-10T00:38:05;21.00;1.00
7325;DHT22;3703;48.016;7.802;2022-07-10T00:40:54;20.80;1.00
7325;DHT22;3703;48.016;7.802;2022-07-10T00:43:51;20.80;1.00
7325;DHT22;3703;48.016;7.802;2022-07-10T00:46:40;20.80;1.00
7325;DHT22;3703;48.016;7.802;2022-07-10T00:49:27;20.80;1.00
7325;DHT22;3703;48.016;7.802;2022-07-10T00:52:16;20.70;1.00
7325;DHT22;3703;48.016;7.802;2022-07-10T00:55:06;20.70;1.00
7325;DHT22;3703;48.016;7.802;2022-07-10T00:57:56;20.80;1.00
7325;DHT22;3703;48.016;7.802;2022-07-10T01:00:44;20.70;1.00
7325;DHT22;3703;48.016;7.802;2022-07-10T01:03:32;20.70;1.00
7325;DHT22;3703;48.016;7.802;2022-07-10T01:06:20;20.50;1.00
7325;DHT22;3703;48.016;7.802;2022-07-10T01:09:07;20.60;1.00
7325;DHT22;3703;48.016;7.802;2022-07-10T01:11:55;20.60;1.00
7325;DHT22;3703;48.016;7.802;2022-07-10T01:14:46;20.50;1.00
7325;DHT22;3703;48.016;7.802;2022-07-10T01:17:33;20.30;1.00
7325;DHT22;3703;48.016;7.802;2022-07-10T01:20:30;20.40;1.00
7325;DHT22;3703;48.016;7.802;2022-07-10T01:23:19;20.50;1.00
7325;DHT22;3703;48.016;7.802;2022-07-10T01:26:07;20.20;1.00
7325;DHT22;3703;48.016;7.802;2022-07-10T01:28:55;20.00;1.00
7325;DHT22;3703;48.016;7.802;2022-07-10T01:31:43;20.10;1.00
7325;DHT22;3703;48.016;7.802;2022-07-10T01:34:32;19.80;1.00
7325;DHT22;3703;48.016;7.802;2022-07-10T01:37:20;19.90;1.00
7325;DHT22;3703;48.016;7.802;2022-07-10T01:40:09;20.00;1.00
7325;DHT22;3703;48.016;7.802;2022-07-10T01:42:58;20.00;1.00
7325;DHT22;3703;48.016;7.802;2022-07-10T01:45:45;19.80;1.00
7325;DHT22;3703;48.016;7.802;2022-07-10T01:48:35;20.00;1.00
7325;DHT22;3703;48.016;7.802;2022-07-10T01:51:22;19.90;1.00
7325;DHT22;3703;48.016;7.802;2022-07-10T01:54:10;19.80;1.00
7325;DHT22;3703;48.016;7.802;2022-07-10T01:56:59;19.90;1.00
7325;DHT22;3703;48.016;7.802;2022-07-10T01:59:47;20.10;1.00
7325;DHT22;3703;48.016;7.802;2022-07-10T02:02:35;20.20;1.00
7325;DHT22;3703;48.016;7.802;2022-07-10T02:05:22;20.30;1.00
7325;DHT22;3703;48.016;7.802;2022-07-10T02:08:09;20.40;1.00
7325;DHT22;3703;48.016;7.802;2022-07-10T02:10:57;20.50;1.00
7325;DHT22;3703;48.016;7.802;2022-07-10T02:13:47;20.50;1.00
7325;DHT22;3703;48.016;7.802;2022-07-10T02:16:34;20.40;1.00
7325;DHT22;3703;48.016;7.802;2022-07-10T02:19:24;20.30;1.00
7325;DHT22;3703;48.016;7.802;2022-07-10T02:22:12;20.50;1.00
7325;DHT22;3703;48.016;7.802;2022-07-10T02:24:59;20.20;1.00
7325;DHT22;3703;48.016;7.802;2022-07-10T02:27:47;20.20;1.00
7325;DHT22;3703;48.016;7.802;2022-07-10T02:30:36;20.00;1.00
7325;DHT22;3703;48.016;7.802;2022-07-10T02:33:24;20.10;1.00
7325;DHT22;3703;48.016;7.802;2022-07-10T02:36:11;20.00;1.00
7325;DHT22;3703;48.016;7.802;2022-07-10T02:38:59;20.10;1.00
7325;DHT22;3703;48.016;7.802;2022-07-10T02:41:47;19.90;1.00
7325;DHT22;3703;48.016;7.802;2022-07-10T02:44:35;19.80;1.00
7325;DHT22;3703;48.016;7.802;2022-07-10T02:47:24;20.00;1.00
7325;DHT22;3703;48.016;7.802;2022-07-10T02:50:11;19.90;1.00
7325;DHT22;3703;48.016;7.802;2022-07-10T02:52:59;20.00;1.00
7325;DHT22;3703;48.016;7.802;2022-07-10T02:55:48;19.90;1.00
7325;DHT22;3703;48.016;7.802;2022-07-10T02:58:38;20.00;1.00
7325;DHT22;3703;48.016;7.802;2022-07-10T03:01:25;19.80;1.00
7325;DHT22;3703;48.016;7.802;2022-07-10T03:04:14;19.60;1.00
7325;DHT22;3703;48.016;7.802;2022-07-10T03:07:03;19.40;1.00
7325;DHT22;3703;48.016;7.802;2022-07-10T03:09:51;19.60;1.00
7325;DHT22;3703;48.016;7.802;2022-07-10T03:12:39;19.50;1.00
7325;DHT22;3703;48.016;7.802;2022-07-10T03:15:27;19.30;1.00
7325;DHT22;3703;48.016;7.802;2022-07-10T03:18:15;19.20;1.00
7325;DHT22;3703;48.016;7.802;2022-07-10T03:21:04;19.00;1.00
7325;DHT22;3703;48.016;7.802;2022-07-10T03:23:52;18.90;1.00
7325;DHT22;3703;48.016;7.802;2022-07-10T03:26:40;19.00;1.00
7325;DHT22;3703;48.016;7.802;2022-07-10T03:29:27;19.10;1.00
7325;DHT22;3703;48.016;7.802;2022-07-10T03:32:15;18.90;1.00
7325;DHT22;3703;48.016;7.802;2022-07-10T03:35:03;19.00;1.00
7325;DHT22;3703;48.016;7.802;2022-07-10T03:37:53;19.10;1.00
7325;DHT22;3703;48.016;7.802;2022-07-10T03:40:40;19.10;1.00
7325;DHT22;3703;48.016;7.802;2022-07-10T03:43:28;19.20;1.00
7325;DHT22;3703;48.016;7.802;2022-07-10T03:46:16;19.00;1.00
7325;DHT22;3703;48.016;7.802;2022-07-10T03:49:03;18.90;1.00
7325;DHT22;3703;48.016;7.802;2022-07-10T03:51:51;18.90;1.00
7325;DHT22;3703;48.016;7.802;2022-07-10T03:54:41;18.70;1.00
7325;DHT22;3703;48.016;7.802;2022-07-10T03:57:28;18.60;1.00
7325;DHT22;3703;48.016;7.802;2022-07-10T04:00:33;18.60;1.00
7325;DHT22;3703;48.016;7.802;2022-07-10T04:03:24;18.80;1.00
7325;DHT22;3703;48.016;7.802;2022-07-10T04:06:11;18.90;1.00
7325;DHT22;3703;48.016;7.802;2022-07-10T04:08:59;19.00;1.00
7325;DHT22;3703;48.016;7.802;2022-07-10T04:11:48;19.10;1.00
7325;DHT22;3703;48.016;7.802;2022-07-10T04:14:36;19.10;1.00
7325;DHT22;3703;48.016;7.802;2022-07-10T04:17:24;19.10;1.00
7325;DHT22;3703;48.016;7.802;2022-07-10T04:20:12;19.10;1.00
7325;DHT22;3703;48.016;7.802;2022-07-10T04:23:00;19.10;1.00
7325;DHT22;3703;48.016;7.802;2022-07-10T04:25:47;19.10;1.00
7325;DHT22;3703;48.016;7.802;2022-07-10T04:28:36;19.10;1.00
7325;DHT22;3703;48.016;7.802;2022-07-10T04:31:24;19.20;1.00
7325;DHT22;3703;48.016;7.802;2022-07-10T04:34:12;19.30;1.00
7325;DHT22;3703;48.016;7.802;2022-07-10T04:36:59;19.40;1.00
7325;DHT22;3703;48.016;7.802;2022-07-10T04:39:47;19.50;1.00
7325;DHT22;3703;48.016;7.802;2022-07-10T04:42:36;19.60;1.00
7325;DHT22;3703;48.016;7.802;2022-07-10T04:45:25;19.60;1.00
7325;DHT22;3703;48.016;7.802;2022-07-10T04:48:13;19.60;1.00
7325;DHT22;3703;48.016;7.802;2022-07-10T04:51:01;19.70;1.00
7325;DHT22;3703;48.016;7.802;2022-07-10T04:53:49;19.80;1.00
7325;DHT22;3703;48.016;7.802;2022-07-10T04:56:36;19.90;1.00
7325;DHT22;3703;48.016;7.802;2022-07-10T04:59:24;20.00;1.00
7325;DHT22;3703;48.016;7.802;2022-07-10T05:02:13;19.90;1.00
7325;DHT22;3703;48.016;7.802;2022-07-10T05:05:01;20.10;1.00
7325;DHT22;3703;48.016;7.802;2022-07-10T05:07:49;20.30;1.00
7325;DHT22;3703;48.016;7.802;2022-07-10T05:10:36;20.30;1.00
7325;DHT22;3703;48.016;7.802;2022-07-10T05:13:26;20.10;1.00
7325;DHT22;3703;48.016;7.802;2022-07-10T05:16:13;20.10;1.00
7325;DHT22;3703;48.016;7.802;2022-07-10T05:19:03;19.90;1.00
7325;DHT22;3703;48.016;7.802;2022-07-10T05:21:50;20.00;1.00
7325;DHT22;3703;48.016;7.802;2022-07-10T05:24:38;20.20;1.00
7325;DHT22;3703;48.016;7.802;2022-07-10T05:27:26;20.30;1.00
7325;DHT22;3703;48.016;7.802;2022-07-10T05:30:13;20.30;1.00
7325;DHT22;3703;48.016;7.802;2022-07-10T05:33:01;20.30;1.00
7325;DHT22;3703;48.016;7.802;2022-07-10T05:35:50;20.30;1.00
7325;DHT22;3703;48.016;7.802;2022-07-10T05:38:38;20.20;1.00
7325;DHT22;3703;48.016;7.802;2022-07-10T05:41:26;20.20;1.00
7325;DHT22;3703;48.016;7.802;2022-07-10T05:44:14;20.30;1.00
7325;DHT22;3703;48.016;7.802;2022-07-10T05:47:01;20.40;1.00
7325;DHT22;3703;48.016;7.802;2022-07-10T05:49:49;20.30;1.00
7325;DHT22;3703;48.016;7.802;2022-07-10T05:52:38;20.10;1.00
7325;DHT22;3703;48.016;7.802;2022-07-10T05:55:26;20.20;1.00
7325;DHT22;3703;48.016;7.802;2022-07-10T05:58:14;20.20;1.00
7325;DHT22;3703;48.016;7.802;2022-07-10T06:01:02;20.30;1.00
7325;DHT22;3703;48.016;7.802;2022-07-10T06:03:50;20.00;1.00
7325;DHT22;3703;48.016;7.802;2022-07-10T06:06:38;19.70;1.00
7325;DHT22;3703;48.016;7.802;2022-07-10T06:09:27;19.60;1.00
7325;DHT22;3703;48.016;7.802;2022-07-10T06:12:15;19.50;1.00
7325;DHT22;3703;48.016;7.802;2022-07-10T06:15:03;19.60;1.00
7325;DHT22;3703;48.016;7.802;2022-07-10T06:17:51;19.20;1.00
7325;DHT22;3703;48.016;7.802;2022-07-10T06:20:39;19.70;1.00
7325;DHT22;3703;48.016;7.802;2022-07-10T06:23:27;19.50;1.00
7325;DHT22;3703;48.016;7.802;2022-07-10T06:26:16;19.50;1.00
7325;DHT22;3703;48.016;7.802;2022-07-10T06:29:04;19.80;1.00
7325;DHT22;3703;48.016;7.802;2022-07-10T06:31:53;20.00;1.00
7325;DHT22;3703;48.016;7.802;2022-07-10T06:34:40;20.00;1.00
7325;DHT22;3703;48.016;7.802;2022-07-10T06:37:28;20.10;1.00
7325;DHT22;3703;48.016;7.802;2022-07-10T06:40:17;19.80;1.00
7325;DHT22;3703;48.016;7.802;2022-07-10T06:43:06;19.60;1.00
7325;DHT22;3703;48.016;7.802;2022-07-10T06:45:54;19.60;1.00
7325;DHT22;3703;48.016;7.802;2022-07-10T06:48:42;19.60;1.00
7325;DHT22;3703;48.016;7.802;2022-07-10T06:51:31;19.50;1.00
7325;DHT22;3703;48.016;7.802;2022-07-10T06:54:19;19.80;1.00
7325;DHT22;3703;48.016;7.802;2022-07-10T06:57:06;19.90;1.00
7325;DHT22;3703;48.016;7.802;2022-07-10T06:59:55;20.00;1.00
7325;DHT22;3703;48.016;7.802;2022-07-10T07:02:43;20.00;1.00
7325;DHT22;3703;48.016;7.802;2022-07-10T07:05:31;19.80;1.00
7325;DHT22;3703;48.016;7.802;2022-07-10T07:08:19;19.70;1.00
7325;DHT22;3703;48.016;7.802;2022-07-10T07:11:07;19.70;1.00
7325;DHT22;3703;48.016;7.802;2022-07-10T07:13:54;19.60;1.00
7325;DHT22;3703;48.016;7.802;2022-07-10T07:16:43;19.60;1.00
7325;DHT22;3703;48.016;7.802;2022-07-10T07:19:42;19.90;1.00
7325;DHT22;3703;48.016;7.802;2022-07-10T07:22:47;19.60;1.00
7325;DHT22;3703;48.016;7.802;2022-07-10T07:25:53;19.80;1.00
7325;DHT22;3703;48.016;7.802;2022-07-10T07:28:41;19.90;1.00
7325;DHT22;3703;48.016;7.802;2022-07-10T07:31:29;19.90;1.00
7325;DHT22;3703;48.016;7.802;2022-07-10T07:34:19;19.60;1.00
7325;DHT22;3703;48.016;7.802;2022-07-10T07:37:06;19.70;1.00
7325;DHT22;3703;48.016;7.802;2022-07-10T07:39:54;19.70;1.00
7325;DHT22;3703;48.016;7.802;2022-07-10T07:42:42;19.90;1.00
7325;DHT22;3703;48.016;7.802;2022-07-10T07:45:30;20.30;1.00
7325;DHT22;3703;48.016;7.802;2022-07-10T07:48:17;20.60;1.00
7325;DHT22;3703;48.016;7.802;2022-07-10T07:51:06;21.10;1.00
7325;DHT22;3703;48.016;7.802;2022-07-10T07:53:55;21.20;99.90
7325;DHT22;3703;48.016;7.802;2022-07-10T07:56:42;21.30;99.90
7325;DHT22;3703;48.016;7.802;2022-07-10T07:59:30;21.40;99.90
7325;DHT22;3703;48.016;7.802;2022-07-10T08:02:18;21.60;99.90
7325;DHT22;3703;48.016;7.802;2022-07-10T08:05:07;21.40;99.90
7325;DHT22;3703;48.016;7.802;2022-07-10T08:07:58;21.20;99.90
7325;DHT22;3703;48.016;7.802;2022-07-10T08:10:50;21.70;99.90
7325;DHT22;3703;48.016;7.802;2022-07-10T08:13:38;21.80;99.90
7325;DHT22;3703;48.016;7.802;2022-07-10T08:16:25;22.00;99.90
7325;DHT22;3703;48.016;7.802;2022-07-10T08:19:13;21.90;99.90
7325;DHT22;3703;48.016;7.802;2022-07-10T08:22:01;22.30;99.90
7325;DHT22;3703;48.016;7.802;2022-07-10T08:24:51;22.30;1.00
7325;DHT22;3703;48.016;7.802;2022-07-10T08:27:39;22.40;99.90
7325;DHT22;3703;48.016;7.802;2022-07-10T08:30:28;22.50;87.20
7325;DHT22;3703;48.016;7.802;2022-07-10T08:33:16;22.70;1.00
7325;DHT22;3703;48.016;7.802;2022-07-10T08:36:05;22.40;99.90
7325;DHT22;3703;48.016;7.802;2022-07-10T08:38:53;22.10;1.00
7325;DHT22;3703;48.016;7.802;2022-07-10T08:41:43;22.30;39.80
7325;DHT22;3703;48.016;7.802;2022-07-10T08:44:33;22.30;1.00
7325;DHT22;3703;48.016;7.802;2022-07-10T08:47:21;22.10;1.00
7325;DHT22;3703;48.016;7.802;2022-07-10T08:50:17;22.10;1.00
7325;DHT22;3703;48.016;7.802;2022-07-10T08:53:08;22.30;1.00
7325;DHT22;3703;48.016;7.802;2022-07-10T08:55:57;22.40;1.00
7325;DHT22;3703;48.016;7.802;2022-07-10T08:58:46;22.60;1.00
7325;DHT22;3703;48.016;7.802;2022-07-10T09:01:35;22.70;99.90
7325;DHT22;3703;48.016;7.802;2022-07-10T09:04:24;22.50;99.90
7325;DHT22;3703;48.016;7.802;2022-07-10T09:07:12;22.40;1.00
7325;DHT22;3703;48.016;7.802;2022-07-10T09:10:05;22.40;99.90
7325;DHT22;3703;48.016;7.802;2022-07-10T09:12:55;22.50;1.00
7325;DHT22;3703;48.016;7.802;2022-07-10T09:15:49;22.70;99.90
7325;DHT22;3703;48.016;7.802;2022-07-10T09:18:38;22.90;83.30
7325;DHT22;3703;48.016;7.802;2022-07-10T09:21:25;22.80;99.90
7325;DHT22;3703;48.016;7.802;2022-07-10T09:24:20;22.90;1.00
7325;DHT22;3703;48.016;7.802;2022-07-10T09:27:10;22.90;1.00
7325;DHT22;3703;48.016;7.802;2022-07-10T09:30:00;23.00;99.90
7325;DHT22;3703;48.016;7.802;2022-07-10T09:32:49;23.00;99.90
7325;DHT22;3703;48.016;7.802;2022-07-10T09:35:36;23.20;1.00
7325;DHT22;3703;48.016;7.802;2022-07-10T09:38:55;23.30;1.00
7325;DHT22;3703;48.016;7.802;2022-07-10T09:41:46;23.40;1.00
7325;DHT22;3703;48.016;7.802;2022-07-10T09:44:33;23.50;99.90
7325;DHT22;3703;48.016;7.802;2022-07-10T09:47:24;23.60;99.90
7325;DHT22;3703;48.016;7.802;2022-07-10T09:50:25;23.60;1.00
7325;DHT22;3703;48.016;7.802;2022-07-10T09:53:13;23.60;99.90
7325;DHT22;3703;48.016;7.802;2022-07-10T09:56:02;23.70;64.90
7325;DHT22;3703;48.016;7.802;2022-07-10T09:58:52;23.70;99.90
7325;DHT22;3703;48.016;7.802;2022-07-10T10:01:46;23.90;1.00
7325;DHT22;3703;48.016;7.802;2022-07-10T10:04:35;23.80;99.90
7325;DHT22;3703;48.016;7.802;2022-07-10T10:07:25;23.70;99.90
7325;DHT22;3703;48.016;7.802;2022-07-10T10:10:13;23.70;99.90
7325;DHT22;3703;48.016;7.802;2022-07-10T10:13:04;23.80;1.00
7325;DHT22;3703;48.016;7.802;2022-07-10T10:15:56;23.80;99.90
7325;DHT22;3703;48.016;7.802;2022-07-10T10:18:45;23.80;1.00
7325;DHT22;3703;48.016;7.802;2022-07-10T10:21:51;23.90;99.90
7325;DHT22;3703;48.016;7.802;2022-07-10T10:24:42;23.80;99.90
7325;DHT22;3703;48.016;7.802;2022-07-10T10:27:31;24.10;99.90
7325;DHT22;3703;48.016;7.802;2022-07-10T10:30:19;24.10;99.90
7325;DHT22;3703;48.016;7.802;2022-07-10T10:36:46;24.30;99.90
7325;DHT22;3703;48.016;7.802;2022-07-10T10:39:53;24.40;99.90
7325;DHT22;3703;48.016;7.802;2022-07-10T10:42:42;24.60;1.00
7325;DHT22;3703;48.016;7.802;2022-07-10T10:45:32;24.70;99.90
7325;DHT22;3703;48.016;7.802;2022-07-10T10:48:21;24.90;28.80
7325;DHT22;3703;48.016;7.802;2022-07-10T10:51:09;24.90;99.90
7325;DHT22;3703;48.016;7.802;2022-07-10T10:54:04;24.70;81.40
7325;DHT22;3703;48.016;7.802;2022-07-10T10:57:21;24.60;99.90
7325;DHT22;3703;48.016;7.802;2022-07-10T11:00:11;24.70;1.00
7325;DHT22;3703;48.016;7.802;2022-07-10T11:03:13;24.70;99.90
7325;DHT22;3703;48.016;7.802;2022-07-10T11:06:13;24.90;99.90
7325;DHT22;3703;48.016;7.802;2022-07-10T11:09:21;24.90;1.00
7325;DHT22;3703;48.016;7.802;2022-07-10T11:12:12;24.90;99.90
7325;DHT22;3703;48.016;7.802;2022-07-10T11:15:02;24.90;1.00
7325;DHT22;3703;48.016;7.802;2022-07-10T11:17:55;25.00;1.00
7325;DHT22;3703;48.016;7.802;2022-07-10T11:20:44;25.20;99.90
7325;DHT22;3703;48.016;7.802;2022-07-10T11:23:48;25.30;1.00
7325;DHT22;3703;48.016;7.802;2022-07-10T11:26:52;25.60;99.90
7325;DHT22;3703;48.016;7.802;2022-07-10T11:29:43;25.50;99.90
7325;DHT22;3703;48.016;7.802;2022-07-10T11:32:35;25.60;99.90
7325;DHT22;3703;48.016;7.802;2022-07-10T11:35:23;25.60;1.00
7325;DHT22;3703;48.016;7.802;2022-07-10T11:38:11;25.60;78.40
7325;DHT22;3703;48.016;7.802;2022-07-10T11:40:59;26.00;1.00
7325;DHT22;3703;48.016;7.802;2022-07-10T11:43:49;26.10;1.00
7325;DHT22;3703;48.016;7.802;2022-07-10T11:46:37;26.20;99.90
7325;DHT22;3703;48.016;7.802;2022-07-10T11:49:27;26.40;99.90
7325;DHT22;3703;48.016;7.802;2022-07-10T11:52:14;26.30;88.60
7325;DHT22;3703;48.016;7.802;2022-07-10T11:55:14;26.10;1.00
7325;DHT22;3703;48.016;7.802;2022-07-10T11:58:13;26.20;1.00
7325;DHT22;3703;48.016;7.802;2022-07-10T12:01:03;26.40;1.00
7325;DHT22;3703;48.016;7.802;2022-07-10T12:04:00;26.50;1.00
7325;DHT22;3703;48.016;7.802;2022-07-10T12:09:39;27.00;99.90
7325;DHT22;3703;48.016;7.802;2022-07-10T12:12:26;26.90;99.90
7325;DHT22;3703;48.016;7.802;2022-07-10T12:15:33;26.80;99.90
7325;DHT22;3703;48.016;7.802;2022-07-10T12:18:23;26.80;99.90
7325;DHT22;3703;48.016;7.802;2022-07-10T12:21:15;26.90;99.90
7325;DHT22;3703;48.016;7.802;2022-07-10T12:24:05;26.90;99.90
7325;DHT22;3703;48.016;7.802;2022-07-10T12:26:54;26.90;99.90
7325;DHT22;3703;48.016;7.802;2022-07-10T12:29:42;26.80;99.90
7325;DHT22;3703;48.016;7.802;2022-07-10T12:32:30;26.90;99.90
7325;DHT22;3703;48.016;7.802;2022-07-10T12:35:18;26.80;99.90
7325;DHT22;3703;48.016;7.802;2022-07-10T12:38:15;26.70;99.90
7325;DHT22;3703;48.016;7.802;2022-07-10T12:41:10;26.70;99.90
7325;DHT22;3703;48.016;7.802;2022-07-10T12:43:58;26.90;99.90
7325;DHT22;3703;48.016;7.802;2022-07-10T12:47:00;27.20;99.90
7325;DHT22;3703;48.016;7.802;2022-07-10T12:49:53;27.30;95.10
7325;DHT22;3703;48.016;7.802;2022-07-10T12:52:41;27.40;73.50
7325;DHT22;3703;48.016;7.802;2022-07-10T12:55:35;27.30;4.80
7325;DHT22;3703;48.016;7.802;2022-07-10T12:58:26;27.20;1.80
7325;DHT22;3703;48.016;7.802;2022-07-10T13:01:14;27.30;1.00
7325;DHT22;3703;48.016;7.802;2022-07-10T13:04:02;27.30;1.00
7325;DHT22;3703;48.016;7.802;2022-07-10T13:06:50;27.40;1.00
7325;DHT22;3703;48.016;7.802;2022-07-10T13:09:39;27.40;1.00
7325;DHT22;3703;48.016;7.802;2022-07-10T13:12:27;27.30;1.00
7325;DHT22;3703;48.016;7.802;2022-07-10T13:15:17;27.40;1.00
7325;DHT22;3703;48.016;7.802;2022-07-10T13:18:07;27.30;1.00
7325;DHT22;3703;48.016;7.802;2022-07-10T13:20:56;27.40;1.00
7325;DHT22;3703;48.016;7.802;2022-07-10T13:23:45;27.40;1.00
7325;DHT22;3703;48.016;7.802;2022-07-10T13:26:34;27.60;1.00
7325;DHT22;3703;48.016;7.802;2022-07-10T13:29:22;27.40;1.00
7325;DHT22;3703;48.016;7.802;2022-07-10T13:32:11;27.40;1.00
7325;DHT22;3703;48.016;7.802;2022-07-10T13:34:58;27.40;1.00
7325;DHT22;3703;48.016;7.802;2022-07-10T13:37:46;27.50;1.00
7325;DHT22;3703;48.016;7.802;2022-07-10T13:40:37;27.50;1.00
7325;DHT22;3703;48.016;7.802;2022-07-10T13:43:25;27.60;1.00
7325;DHT22;3703;48.016;7.802;2022-07-10T13:46:15;27.60;1.00
7325;DHT22;3703;48.016;7.802;2022-07-10T13:49:04;27.50;1.00
7325;DHT22;3703;48.016;7.802;2022-07-10T13:51:51;27.70;1.00
7325;DHT22;3703;48.016;7.802;2022-07-10T13:54:39;27.70;1.00
7325;DHT22;3703;48.016;7.802;2022-07-10T13:57:27;27.90;1.00
7325;DHT22;3703;48.016;7.802;2022-07-10T14:00:15;27.90;1.00
7325;DHT22;3703;48.016;7.802;2022-07-10T14:03:03;27.80;1.00
7325;DHT22;3703;48.016;7.802;2022-07-10T14:05:53;27.80;1.00
7325;DHT22;3703;48.016;7.802;2022-07-10T14:08:40;27.70;99.90
7325;DHT22;3703;48.016;7.802;2022-07-10T14:11:28;27.70;99.90
7325;DHT22;3703;48.016;7.802;2022-07-10T14:14:16;27.90;99.90
7325;DHT22;3703;48.016;7.802;2022-07-10T14:17:04;28.00;99.90
7325;DHT22;3703;48.016;7.802;2022-07-10T14:19:52;27.90;99.90
7325;DHT22;3703;48.016;7.802;2022-07-10T14:22:41;27.90;99.90
7325;DHT22;3703;48.016;7.802;2022-07-10T14:25:32;27.90;99.90
7325;DHT22;3703;48.016;7.802;2022-07-10T14:28:20;27.90;99.90
7325;DHT22;3703;48.016;7.802;2022-07-10T14:31:08;27.90;99.90
7325;DHT22;3703;48.016;7.802;2022-07-10T14:33:56;27.80;99.90
7325;DHT22;3703;48.016;7.802;2022-07-10T14:36:45;27.80;99.90
7325;DHT22;3703;48.016;7.802;2022-07-10T14:39:34;27.70;99.90
7325;DHT22;3703;48.016;7.802;2022-07-10T14:42:22;27.50;99.90
7325;DHT22;3703;48.016;7.802;2022-07-10T14:45:10;27.40;99.90
7325;DHT22;3703;48.016;7.802;2022-07-10T14:47:58;27.40;99.90
7325;DHT22;3703;48.016;7.802;2022-07-10T14:50:45;27.60;99.90
7325;DHT22;3703;48.016;7.802;2022-07-10T14:53:33;27.70;99.90
7325;DHT22;3703;48.016;7.802;2022-07-10T14:56:23;27.80;99.90
7325;DHT22;3703;48.016;7.802;2022-07-10T14:59:11;27.70;99.90
7325;DHT22;3703;48.016;7.802;2022-07-10T15:01:58;27.70;99.90
7325;DHT22;3703;48.016;7.802;2022-07-10T15:04:46;27.70;99.90
7325;DHT22;3703;48.016;7.802;2022-07-10T15:07:34;27.70;99.90
7325;DHT22;3703;48.016;7.802;2022-07-10T15:10:22;27.70;99.90
7325;DHT22;3703;48.016;7.802;2022-07-10T15:13:11;27.80;99.90
7325;DHT22;3703;48.016;7.802;2022-07-10T15:15:59;27.70;99.90
7325;DHT22;3703;48.016;7.802;2022-07-10T15:18:47;27.60;99.90
7325;DHT22;3703;48.016;7.802;2022-07-10T15:21:34;27.60;99.90
7325;DHT22;3703;48.016;7.802;2022-07-10T15:24:22;27.40;99.90
7325;DHT22;3703;48.016;7.802;2022-07-10T15:27:10;27.40;99.90
7325;DHT22;3703;48.016;7.802;2022-07-10T15:30:00;27.40;99.90
7325;DHT22;3703;48.016;7.802;2022-07-10T15:32:48;27.20;99.90
7325;DHT22;3703;48.016;7.802;2022-07-10T15:35:36;27.30;99.90
7325;DHT22;3703;48.016;7.802;2022-07-10T15:38:23;27.10;99.90
7325;DHT22;3703;48.016;7.802;2022-07-10T15:41:11;27.20;99.90
7325;DHT22;3703;48.016;7.802;2022-07-10T15:43:59;27.20;99.90
7325;DHT22;3703;48.016;7.802;2022-07-10T15:46:49;27.20;99.90
7325;DHT22;3703;48.016;7.802;2022-07-10T15:49:37;27.10;99.90
7325;DHT22;3703;48.016;7.802;2022-07-10T15:52:24;26.90;99.90
7325;DHT22;3703;48.016;7.802;2022-07-10T15:55:13;26.70;99.90
7325;DHT22;3703;48.016;7.802;2022-07-10T15:58:00;26.60;99.90
7325;DHT22;3703;48.016;7.802;2022-07-10T16:00:48;26.70;99.90
7325;DHT22;3703;48.016;7.802;2022-07-10T16:03:37;26.70;99.90
7325;DHT22;3703;48.016;7.802;2022-07-10T16:06:25;26.70;99.90
7325;DHT22;3703;48.016;7.802;2022-07-10T16:09:15;26.80;99.90
7325;DHT22;3703;48.016;7.802;2022-07-10T16:12:04;26.80;99.90
7325;DHT22;3703;48.016;7.802;2022-07-10T16:14:52;26.70;99.90
7325;DHT22;3703;48.016;7.802;2022-07-10T16:17:40;26.70;99.90
7325;DHT22;3703;48.016;7.802;2022-07-10T16:20:30;26.70;99.90
7325;DHT22;3703;48.016;7.802;2022-07-10T16:23:20;26.60;99.90
7325;DHT22;3703;48.016;7.802;2022-07-10T16:26:08;26.40;99.90
7325;DHT22;3703;48.016;7.802;2022-07-10T16:28:57;26.30;99.90
7325;DHT22;3703;48.016;7.802;2022-07-10T16:31:45;26.20;99.90
7325;DHT22;3703;48.016;7.802;2022-07-10T16:34:33;26.10;99.90
7325;DHT22;3703;48.016;7.802;2022-07-10T16:37:22;26.00;99.90
7325;DHT22;3703;48.016;7.802;2022-07-10T16:40:10;26.10;99.90
7325;DHT22;3703;48.016;7.802;2022-07-10T16:42:58;26.10;99.90
7325;DHT22;3703;48.016;7.802;2022-07-10T16:45:46;25.90;99.90
7325;DHT22;3703;48.016;7.802;2022-07-10T16:48:33;25.80;99.90
7325;DHT22;3703;48.016;7.802;2022-07-10T16:51:21;25.80;99.90
7325;DHT22;3703;48.016;7.802;2022-07-10T16:54:10;25.60;99.90
7325;DHT22;3703;48.016;7.802;2022-07-10T16:56:58;25.50;99.90
7325;DHT22;3703;48.016;7.802;2022-07-10T16:59:46;25.40;99.90
7325;DHT22;3703;48.016;7.802;2022-07-10T17:02:34;25.30;99.90
7325;DHT22;3703;48.016;7.802;2022-07-10T17:05:22;25.30;99.90
7325;DHT22;3703;48.016;7.802;2022-07-10T17:08:10;25.30;99.90
7325;DHT22;3703;48.016;7.802;2022-07-10T17:11:01;25.20;99.90
7325;DHT22;3703;48.016;7.802;2022-07-10T17:13:49;25.40;99.90
7325;DHT22;3703;48.016;7.802;2022-07-10T17:16:37;25.50;99.90
7325;DHT22;3703;48.016;7.802;2022-07-10T17:19:24;25.30;99.90
7325;DHT22;3703;48.016;7.802;2022-07-10T17:22:12;25.10;99.90
7325;DHT22;3703;48.016;7.802;2022-07-10T17:25:00;25.00;99.90
7325;DHT22;3703;48.016;7.802;2022-07-10T17:27:49;24.90;99.90
7325;DHT22;3703;48.016;7.802;2022-07-10T17:30:37;24.70;99.90
7325;DHT22;3703;48.016;7.802;2022-07-10T17:33:24;24.60;99.90
7325;DHT22;3703;48.016;7.802;2022-07-10T17:36:12;24.50;99.90
7325;DHT22;3703;48.016;7.802;2022-07-10T17:39:00;24.50;99.90
7325;DHT22;3703;48.016;7.802;2022-07-10T17:41:48;24.50;99.90
7325;DHT22;3703;48.016;7.802;2022-07-10T17:44:38;24.50;99.90
7325;DHT22;3703;48.016;7.802;2022-07-10T17:47:26;24.40;99.90
7325;DHT22;3703;48.016;7.802;2022-07-10T17:50:14;24.40;99.90
7325;DHT22;3703;48.016;7.802;2022-07-10T17:53:02;24.40;99.90
7325;DHT22;3703;48.016;7.802;2022-07-10T17:55:50;24.40;99.90
7325;DHT22;3703;48.016;7.802;2022-07-10T17:58:38;24.20;99.90
7325;DHT22;3703;48.016;7.802;2022-07-10T18:01:28;24.10;99.90
7325;DHT22;3703;48.016;7.802;2022-07-10T18:04:15;24.10;99.90
7325;DHT22;3703;48.016;7.802;2022-07-10T18:07:03;24.10;99.90
7325;DHT22;3703;48.016;7.802;2022-07-10T18:09:51;24.10;99.90
7325;DHT22;3703;48.016;7.802;2022-07-10T18:12:39;24.10;99.90
7325;DHT22;3703;48.016;7.802;2022-07-10T18:15:27;24.10;1.00
7325;DHT22;3703;48.016;7.802;2022-07-10T18:18:16;24.00;1.00
7325;DHT22;3703;48.016;7.802;2022-07-10T18:21:03;23.90;1.00
7325;DHT22;3703;48.016;7.802;2022-07-10T18:23:51;23.90;1.00
7325;DHT22;3703;48.016;7.802;2022-07-10T18:26:45;23.90;1.00
7325;DHT22;3703;48.016;7.802;2022-07-10T18:29:33;23.90;1.00
7325;DHT22;3703;48.016;7.802;2022-07-10T18:32:21;23.80;1.00
7325;DHT22;3703;48.016;7.802;2022-07-10T18:35:30;23.70;1.00
7325;DHT22;3703;48.016;7.802;2022-07-10T18:38:16;23.60;1.00
7325;DHT22;3703;48.016;7.802;2022-07-10T18:41:05;23.50;1.00
7325;DHT22;3703;48.016;7.802;2022-07-10T18:43:53;23.30;1.00